Time;durP1;ratioP1;P1;durP2;ratioP2;P2;SDS_P1;SDS_P2;PMS_P1;PMS_P2;Temp;Humidity;BMP_temperature;BMP_pressure;BME280_temperature;BME280_humidity;BME280_pressure;Samples;Min_cycle;Max_cycle;Signal;HPM_P1;HPM_P2
2021/12/08 00:01:39;;;;;;;62.60;26.10;;;;;;;-2.41;75.77;98747.67;103129;1314;95805;-72
2021/12/08 00:04:06;;;;;;;55.60;24.80;;;;;;;-2.39;75.91;98749.20;103332;1313;110084;-71
2021/12/08 00:06:37;;;;;;;57.20;23.80;;;;;;;-2.40;76.09;98749.56;103269;1312;96534;-71
2021/12/08 00:09:34;;;;;;;55.50;23.80;;;;;;;-2.44;75.84;98749.15;103309;1313;107717;-71
2021/12/08 00:14:42;;;;;;;56.20;22.70;;;;;;;-2.51;75.91;98750.54;103247;1312;96502;-71
2021/12/08 00:17:12;;;;;;;53.70;22.80;;;;;;;-2.55;75.87;98751.33;103176;1312;111482;-70
2021/12/08 00:19:41;;;;;;;58.50;25.50;;;;;;;-2.56;75.71;98755.52;103209;1318;96496;-69
2021/12/08 00:22:09;;;;;;;53.60;23.60;;;;;;;-2.58;75.82;98759.04;103185;1312;107846;-71
2021/12/08 00:24:37;;;;;;;49.00;21.90;;;;;;;-2.60;75.63;98760.13;103232;1309;95140;-70
2021/12/08 00:27:07;;;;;;;55.80;22.00;;;;;;;-2.61;75.99;98755.13;103211;1313;96638;-70
2021/12/08 00:29:35;;;;;;;53.10;21.20;;;;;;;-2.62;75.68;98758.61;103214;1313;110115;-71
2021/12/08 00:32:03;;;;;;;59.90;24.40;;;;;;;-2.63;75.78;98757.06;103212;1316;95453;-70
2021/12/08 00:34:32;;;;;;;57.20;24.30;;;;;;;-2.62;76.01;98755.14;103251;1313;109061;-71
2021/12/08 00:37:01;;;;;;;52.70;22.60;;;;;;;-2.63;75.84;98749.08;103338;1312;96518;-71
2021/12/08 00:39:30;;;;;;;54.90;24.00;;;;;;;-2.63;75.81;98745.10;103335;1313;96538;-70
2021/12/08 00:41:57;;;;;;;54.60;22.00;;;;;;;-2.66;75.83;98745.52;103304;1314;110144;-70
2021/12/08 00:44:28;;;;;;;55.20;22.80;;;;;;;-2.68;75.66;98748.52;103352;1314;94256;-70
2021/12/08 00:46:56;;;;;;;54.10;21.90;;;;;;;-2.71;75.70;98755.00;103276;1316;107848;-71
2021/12/08 00:49:23;;;;;;;56.40;22.90;;;;;;;-2.71;75.76;98763.00;103283;1313;98442;-71
2021/12/08 00:51:53;;;;;;;56.40;24.40;;;;;;;-2.71;75.90;98759.34;103345;1314;96673;-70
2021/12/08 00:54:24;;;;;;;50.70;22.20;;;;;;;-2.72;75.88;98760.23;103271;1313;108054;-71
2021/12/08 00:56:55;;;;;;;55.40;24.20;;;;;;;-2.71;75.92;98760.73;103346;1313;96546;-70
2021/12/08 00:59:23;;;;;;;58.40;23.10;;;;;;;-2.71;75.87;98760.02;103304;1312;107801;-71
2021/12/08 01:01:52;;;;;;;57.00;22.00;;;;;;;-2.72;75.76;98759.20;103220;1313;96548;-71
2021/12/08 01:04:20;;;;;;;50.20;21.60;;;;;;;-2.72;75.79;98757.63;103328;1312;96595;-70
2021/12/08 01:06:47;;;;;;;58.30;24.20;;;;;;;-2.73;76.01;98756.61;103312;1310;109871;-70
2021/12/08 01:09:18;;;;;;;55.00;23.90;;;;;;;-2.73;75.87;98752.98;103347;1312;96602;-70
2021/12/08 01:11:46;;;;;;;56.70;24.00;;;;;;;-2.75;75.85;98753.35;103239;1313;107599;-70
2021/12/08 01:14:18;;;;;;;57.90;22.60;;;;;;;-2.77;75.95;98753.23;103184;1313;96567;-70
2021/12/08 01:16:46;;;;;;;51.40;21.90;;;;;;;-2.79;75.54;98750.49;103203;1313;94337;-70
2021/12/08 01:19:14;;;;;;;52.40;23.10;;;;;;;-2.84;75.61;98748.52;103216;1313;110156;-71
2021/12/08 01:21:42;;;;;;;59.00;25.70;;;;;;;-2.87;75.77;98746.70;103279;1316;96551;-70
2021/12/08 01:24:12;;;;;;;51.30;22.60;;;;;;;-2.86;75.62;98742.86;103273;1313;107899;-71
2021/12/08 01:26:40;;;;;;;46.60;20.60;;;;;;;-2.87;75.77;98743.23;103269;1312;96718;-72
2021/12/08 01:29:08;;;;;;;43.80;17.80;;;;;;;-2.90;75.62;98742.25;103218;1313;94537;-70
2021/12/08 01:31:41;;;;;;;46.80;18.20;;;;;;;-2.93;75.80;98739.38;103024;1315;110158;-70
2021/12/08 01:34:13;;;;;;;50.50;20.00;;;;;;;-2.91;75.66;98736.74;103167;1312;94305;-71
2021/12/08 01:36:44;;;;;;;45.60;19.60;;;;;;;-2.90;75.52;98736.38;103204;1319;108201;-72
2021/12/08 01:39:14;;;;;;;42.60;18.10;;;;;;;-3.01;75.46;98736.23;103230;1313;94688;-72
2021/12/08 01:41:42;;;;;;;43.80;19.40;;;;;;;-3.07;75.50;98729.63;103333;1312;96202;-71
2021/12/08 01:46:59;;;;;;;49.60;21.00;;;;;;;-3.13;75.64;98727.33;103254;1313;96469;-70
2021/12/08 01:49:27;;;;;;;46.10;19.60;;;;;;;-3.09;75.45;98725.52;103253;1313;107794;-69
2021/12/08 01:51:57;;;;;;;44.50;18.00;;;;;;;-3.07;75.60;98726.85;103326;1312;96608;-69
2021/12/08 01:54:26;;;;;;;41.90;20.50;;;;;;;-3.04;75.80;98724.00;103219;1313;96625;-69
2021/12/08 01:56:55;;;;;;;44.20;19.20;;;;;;;-3.05;75.94;98726.98;103210;1314;110767;-69
2021/12/08 01:59:25;;;;;;;40.20;18.00;;;;;;;-3.09;75.54;98723.27;103328;1312;96542;-70
2021/12/08 02:01:52;;;;;;;45.60;17.70;;;;;;;-3.09;75.66;98724.65;103257;1312;107860;-71
2021/12/08 02:04:20;;;;;;;40.30;18.40;;;;;;;-3.09;75.57;98723.61;103244;1313;95055;-70
2021/12/08 02:06:48;;;;;;;38.40;16.60;;;;;;;-3.09;75.53;98722.55;103303;1310;96619;-70
2021/12/08 02:09:18;;;;;;;39.80;16.70;;;;;;;-3.08;75.54;98727.07;103308;1318;109194;-69
2021/12/08 02:11:52;;;;;;;39.40;18.40;;;;;;;-3.07;75.92;98729.64;103281;1313;96518;-70
2021/12/08 02:14:25;;;;;;;37.20;16.20;;;;;;;-3.05;75.44;98728.19;103357;1313;107899;-70
2021/12/08 02:16:56;;;;;;;39.10;17.20;;;;;;;-3.06;75.58;98719.02;103347;1312;94253;-70
2021/12/08 02:19:26;;;;;;;42.90;19.00;;;;;;;-3.09;75.52;98711.65;103355;1313;94604;-71
2021/12/08 02:21:57;;;;;;;43.40;20.00;;;;;;;-3.16;75.52;98699.98;103346;1313;108541;-69
2021/12/08 02:24:26;;;;;;;44.30;17.70;;;;;;;-3.22;75.59;98692.67;103317;1313;96676;-70
2021/12/08 02:26:58;;;;;;;40.40;17.90;;;;;;;-3.24;75.46;98696.01;103183;1313;108150;-70
2021/12/08 02:29:41;;;;;;;40.60;18.00;;;;;;;-3.24;75.59;98698.44;103348;1313;96536;-69
2021/12/08 02:32:29;;;;;;;41.90;18.20;;;;;;;-3.26;75.49;98697.27;103323;1313;94905;-71
2021/12/08 02:48:54;;;;;;;48.10;21.80;;;;;;;-3.32;75.48;98693.60;103293;1313;110190;-70
2021/12/08 02:51:22;;;;;;;43.90;18.50;;;;;;;-3.38;75.39;98695.98;103367;1317;94224;-71
2021/12/08 02:53:50;;;;;;;38.10;17.60;;;;;;;-3.39;75.56;98699.12;103398;1313;108385;-69
2021/12/08 02:56:18;;;;;;;40.20;17.00;;;;;;;-3.42;75.21;98700.40;103364;1313;96608;-71
2021/12/08 02:58:49;;;;;;;39.90;17.30;;;;;;;-3.48;75.46;98699.98;103315;1313;96633;-70
2021/12/08 03:01:19;;;;;;;42.70;20.00;;;;;;;-3.52;75.53;98702.86;103327;1319;110331;-70
2021/12/08 03:03:50;;;;;;;45.00;19.80;;;;;;;-3.54;75.48;98706.72;103179;1316;95684;-70
2021/12/08 03:06:20;;;;;;;42.30;18.40;;;;;;;-3.56;75.60;98702.59;103296;1313;107881;-71
2021/12/08 03:08:51;;;;;;;44.50;19.00;;;;;;;-3.56;75.51;98704.34;103384;1313;96528;-71
2021/12/08 03:11:19;;;;;;;48.80;21.10;;;;;;;-3.55;75.62;98698.95;103357;1313;96528;-70
2021/12/08 03:14:05;;;;;;;41.80;17.90;;;;;;;-3.55;75.60;98705.38;103451;1317;110126;-69
2021/12/08 03:16:37;;;;;;;46.20;20.00;;;;;;;-3.59;75.49;98707.52;103398;1318;96615;-69
2021/12/08 03:19:05;;;;;;;47.20;21.00;;;;;;;-3.60;75.57;98710.48;103161;1319;107884;-69
2021/12/08 03:21:34;;;;;;;48.50;22.20;;;;;;;-3.57;75.57;98709.56;103419;1313;96527;-75
2021/12/08 03:32:28;;;;;;;42.90;18.50;;;;;;;-3.55;75.65;98706.59;103275;1317;109778;-71
2021/12/08 03:34:58;;;;;;;48.90;20.40;;;;;;;-3.58;75.60;98715.98;103307;1314;97355;-71
2021/12/08 03:37:33;;;;;;;42.20;20.90;;;;;;;-3.56;75.50;98714.22;103367;1313;96544;-74
2021/12/08 03:40:09;;;;;;;44.60;19.70;;;;;;;-3.54;75.68;98712.09;103243;1313;110192;-72
2021/12/08 03:42:40;;;;;;;46.10;19.90;;;;;;;-3.56;75.44;98712.66;103260;1317;96548;-72
2021/12/08 03:45:17;;;;;;;44.50;20.10;;;;;;;-3.63;75.32;98707.41;103277;1313;107808;-73
2021/12/08 03:47:58;;;;;;;48.10;21.50;;;;;;;-3.67;75.40;98708.36;103323;1314;94321;-71
2021/12/08 03:50:32;;;;;;;43.00;18.10;;;;;;;-3.69;75.45;98711.89;103294;1317;96501;-71
2021/12/08 03:53:00;;;;;;;45.60;20.10;;;;;;;-3.71;75.45;98711.08;103337;1313;107842;-70
2021/12/08 03:55:28;;;;;;;47.30;20.10;;;;;;;-3.70;75.67;98712.95;103366;1314;96570;-71
2021/12/08 03:57:56;;;;;;;46.70;20.20;;;;;;;-3.67;75.66;98713.23;103342;1317;107741;-70
2021/12/08 04:00:29;;;;;;;48.50;20.60;;;;;;;-3.63;75.69;98717.30;103382;1317;95002;-71
2021/12/08 04:02:59;;;;;;;;;;;;;;;-3.58;75.76;98714.96;103427;1313;94904;-70
2021/12/08 04:05:44;;;;;;;37.30;17.60;;;;;;;-3.59;75.54;98712.19;103395;1318;109735;-69
2021/12/08 04:08:18;;;;;;;42.70;19.00;;;;;;;-3.59;75.54;98716.18;103347;1316;94221;-73
2021/12/08 04:10:52;;;;;;;41.80;19.20;;;;;;;-3.61;75.50;98716.05;103324;1316;107859;-70
2021/12/08 04:13:32;;;;;;;41.50;18.60;;;;;;;-3.60;75.38;98720.19;103393;1314;96600;-69
2021/12/08 04:16:02;;;;;;;36.70;17.00;;;;;;;-3.60;75.69;98719.48;103191;1319;94669;-71
2021/12/08 04:18:30;;;;;;;43.80;18.80;;;;;;;-3.61;75.43;98717.96;103409;1319;110191;-70
2021/12/08 04:21:02;;;;;;;39.20;17.60;;;;;;;-3.61;75.54;98717.42;103428;1313;96241;-72
2021/12/08 04:23:36;;;;;;;38.90;15.80;;;;;;;-3.64;75.60;98715.41;103308;1314;107664;-71
2021/12/08 04:26:14;;;;;;;37.50;16.20;;;;;;;-3.65;75.37;98716.83;103354;1317;96492;-71
2021/12/08 04:28:44;;;;;;;45.40;16.70;;;;;;;-3.68;75.40;98716.36;103402;1313;96653;-73
2021/12/08 04:31:19;;;;;;;37.60;15.40;;;;;;;-3.69;75.38;98716.05;103356;1313;110723;-68
2021/12/08 04:33:59;;;;;;;36.60;16.20;;;;;;;-3.69;75.47;98708.60;103404;1313;94247;-74
2021/12/08 04:36:41;;;;;;;36.10;16.50;;;;;;;-3.70;75.67;98707.91;103416;1313;107843;-73
2021/12/08 04:39:29;;;;;;;40.90;17.90;;;;;;;-3.65;75.42;98705.55;103316;1312;96558;-73
2021/12/08 04:42:05;;;;;;;39.80;17.70;;;;;;;-3.64;75.66;98699.64;103432;1313;96513;-74
2021/12/08 04:44:43;;;;;;;42.90;16.20;;;;;;;-3.63;75.47;98696.83;103418;1313;110555;-76
2021/12/08 04:47:29;;;;;;;45.90;18.80;;;;;;;-3.63;75.50;98698.23;103306;1313;97042;-74
2021/12/08 04:53:08;;;;;;;37.80;16.10;;;;;;;-3.70;75.30;98696.84;103397;1316;96519;-74
2021/12/08 05:01:33;;;;;;;34.50;14.30;;;;;;;-3.76;75.49;98704.39;103382;1314;95687;-72
2021/12/08 05:07:16;;;;;;;31.60;12.90;;;;;;;-3.78;75.43;98702.17;103425;1313;96529;-73
2021/12/08 05:09:49;;;;;;;32.60;12.10;;;;;;;-3.76;75.36;98704.05;103247;1316;96683;-72
2021/12/08 05:12:30;;;;;;;30.10;12.20;;;;;;;-3.73;75.41;98707.64;103406;1314;110377;-72
2021/12/08 05:15:12;;;;;;;30.70;12.80;;;;;;;-3.72;75.41;98711.09;103409;1313;96537;-72
2021/12/08 05:17:50;;;;;;;27.80;12.60;;;;;;;-3.71;75.35;98703.78;103299;1313;107762;-73
2021/12/08 05:20:30;;;;;;;29.90;12.80;;;;;;;-3.69;75.29;98695.77;103374;1313;94642;-74
2021/12/08 05:23:15;;;;;;;30.60;12.70;;;;;;;-3.70;75.33;98691.98;103312;1318;97109;-72
2021/12/08 05:25:47;;;;;;;28.30;11.20;;;;;;;-3.71;75.40;98685.95;103408;1315;110301;-72
2021/12/08 05:28:21;;;;;;;31.40;14.20;;;;;;;-3.71;75.54;98685.43;103441;1317;96568;-72
2021/12/08 05:31:02;;;;;;;30.50;13.00;;;;;;;-3.71;75.47;98675.19;103414;1317;108192;-72
2021/12/08 05:33:32;;;;;;;28.00;11.70;;;;;;;-3.72;75.37;98674.50;103386;1314;96525;-72
2021/12/08 05:36:03;;;;;;;24.90;10.40;;;;;;;-3.78;75.23;98671.52;103449;1313;97133;-72
2021/12/08 05:38:34;;;;;;;28.10;11.70;;;;;;;-3.81;75.23;98673.99;103487;1317;110280;-72
2021/12/08 05:41:09;;;;;;;24.20;10.40;;;;;;;-3.80;75.31;98675.20;103487;1313;96551;-72
2021/12/08 05:43:40;;;;;;;26.40;10.50;;;;;;;-3.81;75.43;98673.14;103437;1313;107599;-72
2021/12/08 05:46:11;;;;;;;30.40;13.20;;;;;;;-3.87;75.22;98667.02;103419;1313;96646;-72
2021/12/08 05:48:39;;;;;;;28.70;11.70;;;;;;;-3.93;75.20;98667.31;103256;1319;96497;-72
2021/12/08 05:51:16;;;;;;;28.10;12.20;;;;;;;-3.97;75.22;98668.45;103338;1314;110615;-72
2021/12/08 05:53:48;;;;;;;27.30;11.30;;;;;;;-4.00;75.18;98666.06;103397;1313;96517;-72
2021/12/08 05:56:19;;;;;;;30.80;12.30;;;;;;;-4.02;75.22;98657.96;103342;1313;105549;-72
2021/12/08 05:58:51;;;;;;;29.40;12.50;;;;;;;-4.03;75.24;98657.64;103378;1313;96512;-72
2021/12/08 06:01:35;;;;;;;27.90;12.30;;;;;;;-4.04;75.18;98659.22;103235;1313;96534;-73
2021/12/08 06:04:08;;;;;;;29.30;12.80;;;;;;;-4.04;75.19;98660.59;103373;1317;110171;-72
2021/12/08 06:06:42;;;;;;;27.70;12.00;;;;;;;-4.03;75.08;98654.17;103408;1317;95120;-74
2021/12/08 06:09:14;;;;;;;30.80;12.60;;;;;;;-4.04;75.11;98660.41;103379;1313;105709;-73
2021/12/08 06:11:45;;;;;;;37.80;17.20;;;;;;;-4.07;74.98;98654.78;103423;1314;96631;-73
2021/12/08 06:14:16;;;;;;;63.10;28.80;;;;;;;-4.11;74.95;98656.41;103455;1313;94983;-72
2021/12/08 06:16:47;;;;;;;36.40;15.10;;;;;;;-4.11;75.15;98659.88;103342;1319;108927;-72
2021/12/08 06:19:17;;;;;;;30.90;12.70;;;;;;;-4.10;75.28;98659.35;103370;1313;96591;-73
2021/12/08 06:21:48;;;;;;;30.70;11.90;;;;;;;-4.10;75.13;98660.73;103422;1313;107939;-73
2021/12/08 06:24:18;;;;;;;31.30;13.60;;;;;;;-4.11;74.96;98663.02;103312;1310;96530;-72
2021/12/08 06:26:49;;;;;;;30.80;14.30;;;;;;;-4.13;74.89;98665.63;103357;1314;96513;-72
2021/12/08 06:29:19;;;;;;;32.40;13.40;;;;;;;-4.16;75.15;98658.94;103308;1313;110180;-73
2021/12/08 06:31:54;;;;;;;30.10;14.60;;;;;;;-4.15;75.05;98651.81;103310;1314;96534;-71
2021/12/08 06:34:27;;;;;;;33.10;14.40;;;;;;;-4.17;74.95;98656.87;103283;1314;107834;-71
2021/12/08 06:37:05;;;;;;;33.90;14.50;;;;;;;-4.21;74.93;98664.90;103296;1317;94244;-72
2021/12/08 06:39:46;;;;;;;34.90;14.10;;;;;;;-4.24;74.93;98667.73;103302;1313;96620;-73
2021/12/08 06:42:26;;;;;;;32.30;13.20;;;;;;;-4.23;74.91;98666.33;103325;1316;111513;-72
2021/12/08 06:44:56;;;;;;;34.40;14.70;;;;;;;-4.23;75.02;98664.95;103303;1313;96490;-72
2021/12/08 06:47:31;;;;;;;33.30;14.50;;;;;;;-4.23;75.15;98667.02;103285;1313;107980;-72
2021/12/08 06:50:07;;;;;;;32.30;13.60;;;;;;;-4.26;75.04;98668.46;103304;1314;96642;-72
2021/12/08 06:52:38;;;;;;;33.90;15.10;;;;;;;-4.30;74.96;98672.70;103338;1316;96641;-71
2021/12/08 06:55:27;;;;;;;37.80;15.80;;;;;;;-4.29;75.11;98669.92;103351;1314;110022;-72
2021/12/08 06:58:06;;;;;;;35.90;15.20;;;;;;;-4.28;75.05;98679.58;103123;1316;96657;-72
2021/12/08 07:01:10;;;;;;;35.70;15.20;;;;;;;-4.26;75.07;98686.64;103286;1314;107921;-74
2021/12/08 07:06:59;;;;;;;32.60;14.70;;;;;;;-4.24;75.08;98688.02;102977;1319;96535;-72
2021/12/08 07:09:37;;;;;;;34.80;14.80;;;;;;;-4.23;75.03;98692.83;103270;1313;110199;-72
2021/12/08 07:12:43;;;;;;;36.10;15.60;;;;;;;-4.20;75.12;98697.44;103306;1317;95166;-72
2021/12/08 07:15:15;;;;;;;37.70;18.30;;;;;;;-4.21;74.99;98699.88;103091;1316;107883;-72
2021/12/08 07:17:49;;;;;;;38.60;16.10;;;;;;;-4.20;74.98;98701.61;103342;1316;95318;-72
2021/12/08 07:20:41;;;;;;;40.20;17.40;;;;;;;-4.17;75.02;98702.77;103315;1314;96499;-72
2021/12/08 07:23:16;;;;;;;36.90;16.10;;;;;;;-4.14;74.98;98703.58;103309;1314;110105;-72
2021/12/08 07:25:48;;;;;;;31.40;14.50;;;;;;;-4.13;75.07;98703.39;103353;1317;96536;-73
2021/12/08 07:28:18;;;;;;;33.40;14.40;;;;;;;-4.13;75.00;98710.85;103388;1313;107952;-73
2021/12/08 07:30:51;;;;;;;35.30;16.80;;;;;;;-4.14;74.90;98719.87;103298;1314;96980;-72
2021/12/08 07:33:20;;;;;;;34.80;15.00;;;;;;;-4.14;74.90;98727.13;103320;1314;96603;-73
2021/12/08 07:35:53;;;;;;;33.70;14.20;;;;;;;-4.09;75.10;98720.81;103319;1316;110122;-72
2021/12/08 07:38:26;;;;;;;35.50;15.70;;;;;;;-4.03;75.18;98716.35;103369;1313;97186;-73
2021/12/08 07:41:20;;;;;;;30.10;14.00;;;;;;;-4.00;75.18;98721.50;103299;1314;107567;-72
2021/12/08 07:43:50;;;;;;;;;;;;;;;-3.99;75.19;98719.22;103293;1317;96522;-73
2021/12/08 07:46:27;;;;;;;34.80;17.30;;;;;;;-4.01;74.95;98723.59;103335;1319;96538;-72
2021/12/08 07:49:09;;;;;;;35.80;16.00;;;;;;;-4.02;74.94;98723.27;103331;1313;110063;-72
2021/12/08 07:51:50;;;;;;;33.50;14.10;;;;;;;-4.03;74.87;98721.55;103314;1314;96523;-72
2021/12/08 07:54:21;;;;;;;35.60;15.10;;;;;;;-4.03;75.01;98717.56;103130;1316;107503;-72
2021/12/08 07:56:56;;;;;;;36.40;15.30;;;;;;;-4.00;74.98;98712.83;103314;1316;96625;-72
2021/12/08 07:59:33;;;;;;;36.70;16.00;;;;;;;-3.97;74.90;98708.11;103332;1317;96527;-73
2021/12/08 08:02:07;;;;;;;32.20;14.70;;;;;;;-3.94;75.03;98705.09;103262;1317;110088;-72
2021/12/08 08:04:41;;;;;;;32.90;14.10;;;;;;;-3.91;75.00;98702.96;103203;1317;95743;-74
2021/12/08 08:07:16;;;;;;;32.40;14.40;;;;;;;-3.85;74.98;98707.17;103384;1313;109570;-72
2021/12/08 08:09:49;;;;;;;39.10;16.70;;;;;;;-3.80;75.02;98701.69;103393;1312;94798;-71
2021/12/08 08:12:22;;;;;;;40.40;18.10;;;;;;;-3.75;75.07;98700.73;103417;1313;97247;-72
2021/12/08 08:14:56;;;;;;;35.30;15.60;;;;;;;-3.71;75.13;98699.46;103349;1313;110128;-73
2021/12/08 08:17:35;;;;;;;37.30;16.60;;;;;;;-3.68;75.12;98695.23;103314;1313;96635;-72
2021/12/08 08:20:20;;;;;;;36.80;17.10;;;;;;;-3.64;74.98;98688.02;103291;1313;107667;-72
2021/12/08 08:22:48;;;;;;;37.70;18.40;;;;;;;-3.59;75.14;98690.01;103284;1313;96551;-72
2021/12/08 08:25:20;;;;;;;40.50;17.40;;;;;;;-3.54;74.84;98690.44;103289;1313;96608;-72
2021/12/08 08:27:50;;;;;;;31.30;14.70;;;;;;;-3.50;74.92;98695.02;103312;1312;110139;-73
2021/12/08 08:30:26;;;;;;;37.90;16.40;;;;;;;-3.48;74.88;98694.79;103358;1313;95178;-72
2021/12/08 08:32:56;;;;;;;38.70;17.90;;;;;;;-3.46;74.95;98695.27;103317;1313;107928;-74
2021/12/08 08:35:49;;;;;;;37.20;16.50;;;;;;;-3.42;74.96;98692.76;103374;1312;95285;-74
2021/12/08 08:38:38;;;;;;;37.10;15.60;;;;;;;-3.36;74.88;98685.70;103354;1313;96486;-73
2021/12/08 08:41:19;;;;;;;35.30;16.90;;;;;;;-3.36;74.91;98681.02;103255;1317;110803;-73
2021/12/08 08:43:52;;;;;;;41.00;17.40;;;;;;;-3.35;74.78;98674.23;103261;1313;96582;-73
2021/12/08 08:46:33;;;;;;;39.90;17.30;;;;;;;-3.37;74.91;98671.33;103351;1313;107458;-73
2021/12/08 08:49:17;;;;;;;36.60;17.00;;;;;;;-3.42;74.74;98672.48;103382;1313;96693;-73
2021/12/08 08:51:54;;;;;;;35.20;16.50;;;;;;;-3.44;74.90;98675.46;103406;1316;96499;-73
2021/12/08 08:54:27;;;;;;;38.50;17.80;;;;;;;-3.44;75.08;98675.11;103329;1313;110096;-73
2021/12/08 08:57:02;;;;;;;38.60;16.80;;;;;;;-3.44;74.87;98671.66;103367;1316;96627;-73
2021/12/08 08:59:40;;;;;;;39.50;18.40;;;;;;;-3.48;74.80;98662.21;103447;1314;107936;-73
2021/12/08 09:02:13;;;;;;;37.80;17.40;;;;;;;-3.46;74.86;98656.26;103114;1316;96722;-71
2021/12/08 09:04:49;;;;;;;37.60;18.30;;;;;;;-3.42;74.93;98650.30;103349;1313;94299;-75
2021/12/08 09:07:23;;;;;;;41.20;18.80;;;;;;;-3.38;75.03;98644.63;103417;1314;111800;-73
2021/12/08 09:09:57;;;;;;;43.60;20.70;;;;;;;-3.32;75.06;98635.16;103418;1313;96657;-73
2021/12/08 09:12:42;;;;;;;41.90;19.30;;;;;;;-3.25;75.12;98636.35;103421;1313;107891;-74
2021/12/08 09:15:22;;;;;;;41.10;20.20;;;;;;;-3.22;74.90;98630.23;103405;1313;94616;-73
2021/12/08 09:18:20;;;;;;;43.20;20.30;;;;;;;-3.21;74.78;98625.70;103324;1314;96906;-74
2021/12/08 09:21:09;;;;;;;41.90;19.60;;;;;;;-3.18;74.89;98631.36;103155;1313;110307;-73
2021/12/08 09:23:46;;;;;;;46.50;20.10;;;;;;;-3.14;74.94;98628.32;103262;1312;94552;-74
2021/12/08 09:26:20;;;;;;;40.30;18.70;;;;;;;-3.09;74.86;98630.63;103367;1314;107855;-73
2021/12/08 09:28:57;;;;;;;43.90;21.60;;;;;;;-3.08;74.97;98629.05;103279;1316;97080;-73
2021/12/08 09:31:36;;;;;;;45.00;20.90;;;;;;;-3.09;74.59;98622.13;103178;1316;97729;-73
2021/12/08 09:34:22;;;;;;;43.30;19.40;;;;;;;-3.10;74.62;98623.71;103296;1317;109822;-73
2021/12/08 09:37:15;;;;;;;39.60;19.20;;;;;;;-3.08;74.81;98619.32;103171;1320;94269;-74
2021/12/08 09:39:53;;;;;;;39.90;18.80;;;;;;;-3.06;74.77;98619.12;103340;1313;107799;-76
2021/12/08 09:42:24;;;;;;;41.50;18.50;;;;;;;-3.04;74.83;98614.69;103411;1316;94642;-73
2021/12/08 09:45:24;;;;;;;40.60;20.00;;;;;;;-3.02;74.75;98605.11;103332;1313;96213;-74
2021/12/08 09:47:55;;;;;;;37.30;17.80;;;;;;;-3.08;74.74;98600.25;103427;1313;110502;-73
2021/12/08 09:50:24;;;;;;;42.10;19.20;;;;;;;-3.09;74.70;98596.65;103124;1316;96667;-74
2021/12/08 09:52:52;;;;;;;43.10;18.80;;;;;;;-3.06;74.92;98595.35;103148;1316;106495;-73
2021/12/08 09:55:20;;;;;;;40.70;19.50;;;;;;;-3.03;74.67;98594.74;103126;1313;96509;-74
2021/12/08 09:57:48;;;;;;;45.40;21.10;;;;;;;-3.07;74.56;98591.72;103174;1314;94586;-74
2021/12/08 10:00:29;;;;;;;45.10;21.60;;;;;;;-3.14;74.49;98585.83;103158;1319;110208;-72
2021/12/08 10:03:00;;;;;;;43.00;19.90;;;;;;;-3.16;74.63;98577.19;103200;1316;96661;-72
2021/12/08 10:05:32;;;;;;;40.70;18.70;;;;;;;-3.18;74.60;98575.48;103108;1313;107779;-72
2021/12/08 10:08:04;;;;;;;35.00;18.00;;;;;;;-3.14;74.65;98574.20;103113;1315;96599;-73
2021/12/08 10:10:33;;;;;;;41.10;18.30;;;;;;;-3.10;74.54;98574.29;103276;1316;96628;-72
2021/12/08 10:13:04;;;;;;;38.40;18.60;;;;;;;-3.09;74.50;98571.81;103213;1313;109276;-73
2021/12/08 10:15:32;;;;;;;45.80;21.10;;;;;;;-3.07;74.66;98573.51;103266;1319;96618;-73
2021/12/08 10:18:03;;;;;;;35.30;15.90;;;;;;;-3.04;74.68;98578.45;103201;1316;107997;-71
2021/12/08 10:20:40;;;;;;;37.20;19.40;;;;;;;-3.03;74.94;98578.41;103313;1313;96548;-73
2021/12/08 10:23:19;;;;;;;38.10;18.00;;;;;;;-2.97;74.71;98580.20;103317;1315;96577;-74
2021/12/08 10:25:50;;;;;;;39.70;18.70;;;;;;;-2.91;74.64;98573.11;103289;1318;110203;-73
2021/12/08 10:28:31;;;;;;;37.50;17.20;;;;;;;-2.89;74.62;98569.76;103218;1316;94245;-73
2021/12/08 10:31:09;;;;;;;39.50;18.50;;;;;;;-2.90;74.62;98570.99;103238;1314;107644;-72
2021/12/08 10:36:45;;;;;;;38.90;19.00;;;;;;;-2.93;74.69;98567.43;103292;1312;96985;-73
2021/12/08 10:39:35;;;;;;;38.30;18.70;;;;;;;-2.89;74.75;98565.78;103192;1313;111497;-75
2021/12/08 10:42:09;;;;;;;44.90;20.60;;;;;;;-2.85;74.59;98566.52;103045;1313;96680;-73
2021/12/08 10:44:56;;;;;;;40.00;18.60;;;;;;;-2.79;74.58;98564.64;103123;1316;107802;-72
2021/12/08 10:47:29;;;;;;;38.90;18.30;;;;;;;-2.74;74.93;98558.27;102741;1313;97529;-72
2021/12/08 10:55:39;;;;;;;38.80;19.00;;;;;;;-2.69;74.50;98547.36;103374;1318;96551;-73
2021/12/08 10:58:20;;;;;;;47.50;22.60;;;;;;;-2.71;74.70;98547.58;103408;1313;107893;-73
2021/12/08 11:00:51;;;;;;;38.30;18.70;;;;;;;-2.64;74.52;98540.83;103382;1316;96684;-73
2021/12/08 11:03:23;;;;;;;38.10;18.60;;;;;;;-2.62;74.52;98542.47;103330;1313;96563;-73
2021/12/08 11:05:57;;;;;;;42.30;20.90;;;;;;;-2.60;74.90;98538.27;103304;1314;110240;-72
2021/12/08 11:08:25;;;;;;;37.60;18.20;;;;;;;-2.57;74.74;98533.84;103361;1313;96490;-74
2021/12/08 11:11:06;;;;;;;38.20;19.60;;;;;;;-2.53;74.79;98534.45;103374;1313;107826;-73
2021/12/08 11:13:47;;;;;;;40.80;19.70;;;;;;;-2.53;74.72;98536.00;103144;1313;94647;-73
2021/12/08 11:16:26;;;;;;;42.30;21.20;;;;;;;-2.50;74.84;98536.60;103337;1317;96520;-74
2021/12/08 11:19:11;;;;;;;40.90;18.90;;;;;;;-2.53;74.44;98534.77;103317;1316;110201;-72
2021/12/08 11:21:47;;;;;;;41.50;20.70;;;;;;;-2.55;74.56;98535.88;103234;1316;96539;-74
2021/12/08 11:24:31;;;;;;;40.00;19.40;;;;;;;-2.56;74.79;98534.33;103156;1319;107946;-74
2021/12/08 11:27:06;;;;;;;39.30;19.20;;;;;;;-2.56;74.51;98529.65;103238;1316;96616;-74
2021/12/08 11:29:39;;;;;;;45.80;20.40;;;;;;;-2.54;74.65;98528.73;103245;1313;96631;-72
2021/12/08 11:32:12;;;;;;;38.70;19.60;;;;;;;-2.51;74.69;98525.52;103260;1313;110072;-71
2021/12/08 11:34:46;;;;;;;44.70;23.70;;;;;;;-2.51;74.84;98523.27;103278;1319;96609;-73
2021/12/08 11:37:25;;;;;;;42.70;21.50;;;;;;;-2.50;74.76;98520.81;103351;1317;107835;-74
2021/12/08 11:40:01;;;;;;;38.90;20.60;;;;;;;-2.47;74.68;98518.46;103304;1316;94665;-72
2021/12/08 11:42:36;;;;;;;42.40;21.10;;;;;;;-2.45;74.67;98521.55;103339;1313;94541;-73
2021/12/08 11:45:16;;;;;;;42.90;20.40;;;;;;;-2.42;74.65;98515.36;103144;1315;110149;-74
2021/12/08 11:47:44;;;;;;;39.20;19.40;;;;;;;-2.43;74.65;98513.30;103374;1313;96596;-74
2021/12/08 11:50:19;;;;;;;43.80;21.10;;;;;;;-2.43;74.46;98519.20;103358;1314;107801;-74
2021/12/08 11:52:52;;;;;;;39.40;19.80;;;;;;;-2.44;74.51;98518.55;103303;1317;94703;-74
2021/12/08 11:55:25;;;;;;;43.10;20.20;;;;;;;-2.46;74.55;98518.61;103359;1312;95102;-74
2021/12/08 11:58:01;;;;;;;44.50;21.40;;;;;;;-2.47;74.49;98519.70;103449;1316;110051;-74
2021/12/08 12:00:34;;;;;;;47.10;21.90;;;;;;;-2.50;74.29;98523.26;103383;1317;95691;-73
2021/12/08 12:03:10;;;;;;;43.60;21.60;;;;;;;-2.51;74.28;98517.72;103278;1313;108429;-75
2021/12/08 12:05:39;;;;;;;42.60;21.50;;;;;;;-2.54;74.32;98514.84;104181;1313;96561;-76
2021/12/08 12:08:11;;;;;;;40.90;20.90;;;;;;;-2.53;74.43;98512.89;103387;1317;96532;-75
2021/12/08 12:10:47;;;;;;;41.80;19.50;;;;;;;-2.50;74.32;98507.78;103297;1316;110114;-73
2021/12/08 12:13:15;;;;;;;42.70;20.70;;;;;;;-2.48;74.43;98500.77;103353;1313;97219;-73
2021/12/08 12:15:47;;;;;;;43.70;21.00;;;;;;;-2.45;74.25;98498.96;103426;1316;107950;-73
2021/12/08 12:18:23;;;;;;;42.10;20.50;;;;;;;-2.41;74.53;98496.40;103368;1316;94165;-75
2021/12/08 12:20:59;;;;;;;44.30;22.20;;;;;;;-2.39;74.44;98492.86;103379;1317;96516;-73
2021/12/08 12:23:45;;;;;;;45.40;22.80;;;;;;;-2.37;74.38;98486.58;103345;1317;110237;-74
2021/12/08 12:26:40;;;;;;;45.10;21.10;;;;;;;-2.34;74.53;98487.36;103325;1314;96542;-74
2021/12/08 12:29:16;;;;;;;47.10;21.90;;;;;;;-2.31;74.45;98483.11;103406;1316;107769;-75
2021/12/08 12:32:07;;;;;;;45.80;22.20;;;;;;;-2.35;74.09;98481.30;103309;1315;94836;-74